createdAt,value
2019-03-25T00:00:09.238Z,9.20
2019-03-25T00:08:20.587Z,9.30
2019-03-25T00:10:52.740Z,9.30
2019-03-25T00:13:22.756Z,9.40
2019-03-25T00:15:51.624Z,9.00
2019-03-25T00:18:21.605Z,9.30
2019-03-25T00:20:52.847Z,8.80
2019-03-25T00:23:24.585Z,8.90
2019-03-25T00:25:54.160Z,8.60
2019-03-25T00:28:26.457Z,8.60
2019-03-25T00:30:57.499Z,8.90
2019-03-25T00:33:27.475Z,8.70
2019-03-25T00:35:57.384Z,8.70
2019-03-25T00:38:27.906Z,8.90
2019-03-25T00:40:57.144Z,9.00
2019-03-25T00:43:26.506Z,8.70
2019-03-25T00:45:56.201Z,8.70
2019-03-25T00:48:26.188Z,8.60
2019-03-25T00:50:55.629Z,8.70
2019-03-25T00:53:26.404Z,8.60
2019-03-25T00:55:57.272Z,8.90
2019-03-25T00:58:27.624Z,9.10
2019-03-25T01:00:56.661Z,9.10
2019-03-25T01:03:26.255Z,8.40
2019-03-25T01:05:55.196Z,8.80
2019-03-25T01:08:24.159Z,9.20
2019-03-25T01:10:52.967Z,8.70
2019-03-25T01:13:21.833Z,9.10
2019-03-25T01:15:50.780Z,8.90
2019-03-25T01:18:19.613Z,9.00
2019-03-25T01:20:48.439Z,9.30
2019-03-25T01:23:17.223Z,8.60
2019-03-25T01:25:46.010Z,9.20
2019-03-25T01:28:14.839Z,8.50
2019-03-25T01:30:43.618Z,9.00
2019-03-25T01:33:12.428Z,8.80
2019-03-25T01:35:41.387Z,8.70
2019-03-25T01:38:10.268Z,9.00
2019-03-25T01:40:41.244Z,9.10
2019-03-25T01:43:10.214Z,9.10
2019-03-25T01:45:39.221Z,8.70
2019-03-25T01:48:08.027Z,8.90
2019-03-25T01:50:37.123Z,8.80
2019-03-25T01:53:06.206Z,8.50
2019-03-25T01:55:35.304Z,8.50
2019-03-25T01:58:04.150Z,7.80
2019-03-25T02:00:32.977Z,8.20
2019-03-25T02:03:01.901Z,8.30
2019-03-25T02:05:31.794Z,8.40
2019-03-25T02:08:00.834Z,8.40
2019-03-25T02:10:30.910Z,8.40
2019-03-25T02:12:59.957Z,8.00
2019-03-25T02:15:28.972Z,8.10
2019-03-25T02:17:58.016Z,8.10
2019-03-25T02:20:27.086Z,8.10
2019-03-25T02:22:56.110Z,7.90
2019-03-25T02:25:26.179Z,7.80
2019-03-25T02:27:54.887Z,8.00
2019-03-25T02:30:23.749Z,7.90
2019-03-25T02:32:52.615Z,7.60
2019-03-25T02:35:21.414Z,7.80
2019-03-25T02:37:50.343Z,8.00
2019-03-25T02:40:19.218Z,8.10
2019-03-25T02:42:48.181Z,7.80
2019-03-25T02:45:17.172Z,8.10
2019-03-25T02:47:46.296Z,7.80
2019-03-25T02:50:15.324Z,8.10
2019-03-25T02:52:44.275Z,7.90
2019-03-25T02:55:13.263Z,7.90
2019-03-25T02:57:42.266Z,8.00
2019-03-25T03:00:12.731Z,8.40
2019-03-25T03:02:41.795Z,8.20
2019-03-25T03:05:10.887Z,7.80
2019-03-25T03:07:39.824Z,8.10
2019-03-25T03:10:09.337Z,8.00
2019-03-25T03:12:38.607Z,8.10
2019-03-25T03:15:09.558Z,8.40
2019-03-25T03:17:41.423Z,8.40
2019-03-25T03:20:10.434Z,8.20
2019-03-25T03:22:39.472Z,8.50
2019-03-25T03:25:08.465Z,8.30
2019-03-25T03:27:38.804Z,8.20
2019-03-25T03:30:08.013Z,8.30
2019-03-25T03:32:37.562Z,8.20
2019-03-25T03:35:08.298Z,8.30
2019-03-25T03:37:38.195Z,8.00
2019-03-25T03:40:07.310Z,8.10
2019-03-25T03:42:38.170Z,7.90
2019-03-25T03:45:07.402Z,7.80
2019-03-25T03:47:36.293Z,7.50
2019-03-25T03:50:05.355Z,7.70
2019-03-25T03:52:34.909Z,7.50
2019-03-25T03:55:03.967Z,7.70
2019-03-25T03:57:33.073Z,7.30
2019-03-25T04:00:02.370Z,7.30
2019-03-25T04:02:31.304Z,7.00
2019-03-25T04:05:00.534Z,7.10
2019-03-25T04:07:29.514Z,7.10
2019-03-25T04:09:58.682Z,7.00
2019-03-25T04:12:27.654Z,6.70
2019-03-25T04:14:56.654Z,6.90
2019-03-25T04:17:25.733Z,7.20
2019-03-25T04:19:54.693Z,7.00
2019-03-25T04:22:23.603Z,6.70
2019-03-25T04:24:52.576Z,6.70
2019-03-25T04:27:22.900Z,6.70
2019-03-25T04:29:51.870Z,6.60
2019-03-25T04:32:21.190Z,6.60
2019-03-25T04:34:50.235Z,6.50
2019-03-25T04:37:19.883Z,6.50
2019-03-25T04:39:48.775Z,6.50
2019-03-25T04:42:17.733Z,6.30
2019-03-25T04:44:46.559Z,6.30
2019-03-25T04:47:15.614Z,6.30
2019-03-25T04:49:45.643Z,6.20
2019-03-25T04:52:14.568Z,6.20
2019-03-25T04:54:44.458Z,6.30
2019-03-25T04:57:13.434Z,6.30
2019-03-25T04:59:42.557Z,6.20
2019-03-25T05:02:11.530Z,6.30
2019-03-25T05:04:40.456Z,6.10
2019-03-25T05:07:09.439Z,6.40
2019-03-25T05:09:38.405Z,6.40
2019-03-25T05:12:07.304Z,6.20
2019-03-25T05:14:36.248Z,6.50
2019-03-25T05:17:05.127Z,6.30
2019-03-25T05:19:34.103Z,6.50
2019-03-25T05:22:02.996Z,6.70
2019-03-25T05:24:31.899Z,6.70
2019-03-25T05:27:00.923Z,6.60
2019-03-25T05:29:29.852Z,6.40
2019-03-25T05:31:59.835Z,6.50
2019-03-25T05:34:29.807Z,6.60
2019-03-25T05:36:59.051Z,6.90
2019-03-25T05:39:28.296Z,6.70
2019-03-25T05:41:58.004Z,6.50
2019-03-25T05:44:28.238Z,6.60
2019-03-25T05:46:57.302Z,6.50
2019-03-25T05:49:26.583Z,6.60
2019-03-25T05:51:55.617Z,6.70
2019-03-25T05:54:24.570Z,6.80
2019-03-25T05:57:02.048Z,7.10
2019-03-25T05:59:24.639Z,7.10
2019-03-25T06:01:53.736Z,7.40
2019-03-25T06:04:22.625Z,7.30
2019-03-25T06:06:52.207Z,7.30
2019-03-25T06:09:21.230Z,7.40
2019-03-25T06:11:50.460Z,7.40
2019-03-25T06:14:19.396Z,7.50
2019-03-25T06:16:48.234Z,7.30
2019-03-25T06:19:18.127Z,7.30
2019-03-25T06:21:47.271Z,7.30
2019-03-25T06:24:16.753Z,7.40
2019-03-25T06:26:45.641Z,7.00
2019-03-25T06:29:14.515Z,7.00
2019-03-25T06:31:43.515Z,7.10
2019-03-25T06:34:12.268Z,7.20
2019-03-25T06:36:41.314Z,7.70
2019-03-25T06:39:10.231Z,7.50
2019-03-25T06:41:39.148Z,7.80
2019-03-25T06:44:07.988Z,7.90
2019-03-25T06:46:37.066Z,8.10
2019-03-25T06:49:06.006Z,8.10
2019-03-25T06:51:35.268Z,8.10
2019-03-25T06:54:04.275Z,8.10
2019-03-25T06:56:33.716Z,8.20
2019-03-25T06:59:02.556Z,8.30
2019-03-25T07:01:32.960Z,8.20
2019-03-25T07:04:01.998Z,8.70
2019-03-25T07:06:32.011Z,8.80
2019-03-25T07:09:01.187Z,8.90
2019-03-25T07:11:34.866Z,9.00
2019-03-25T07:14:04.150Z,8.80
2019-03-25T07:16:33.394Z,8.90
2019-03-25T07:19:02.320Z,8.50
2019-03-25T07:21:31.272Z,9.00
2019-03-25T07:24:00.176Z,9.00
2019-03-25T07:26:29.137Z,8.90
2019-03-25T07:28:59.147Z,9.20
2019-03-25T07:31:28.994Z,10.10
2019-03-25T07:33:59.904Z,9.30
2019-03-25T07:36:28.780Z,9.20
2019-03-25T07:39:00.074Z,9.10
2019-03-25T07:41:28.200Z,9.10
2019-03-25T07:43:57.565Z,8.60
2019-03-25T07:46:26.508Z,8.30
2019-03-25T07:48:55.444Z,8.50
2019-03-25T07:51:26.712Z,9.10
2019-03-25T07:53:56.507Z,8.50
2019-03-25T07:56:26.682Z,8.60
2019-03-25T07:58:56.232Z,8.30
2019-03-25T08:01:25.714Z,8.40
2019-03-25T08:03:56.291Z,8.10
2019-03-25T08:06:25.279Z,8.20
2019-03-25T08:09:03.367Z,8.40
2019-03-25T08:11:26.093Z,8.10
2019-03-25T08:13:54.967Z,7.90
2019-03-25T08:16:23.976Z,7.90
2019-03-25T08:18:52.971Z,8.10
2019-03-25T08:21:22.063Z,8.40
2019-03-25T08:23:51.057Z,8.50
2019-03-25T08:26:19.938Z,9.10
2019-03-25T08:28:48.728Z,8.90
2019-03-25T08:31:18.001Z,8.90
2019-03-25T08:33:47.373Z,8.90
2019-03-25T08:36:16.629Z,9.30
2019-03-25T08:38:46.663Z,9.50
2019-03-25T08:41:15.735Z,9.50
2019-03-25T08:43:45.197Z,10.20
2019-03-25T08:46:15.450Z,10.00
2019-03-25T08:48:46.489Z,9.60
2019-03-25T08:51:16.483Z,10.40
2019-03-25T08:53:45.773Z,10.00
2019-03-25T08:56:14.656Z,10.70
2019-03-25T08:58:44.273Z,10.00
2019-03-25T09:01:13.414Z,10.00
2019-03-25T09:03:53.476Z,9.30
2019-03-25T09:06:24.399Z,9.60
2019-03-25T09:08:54.318Z,10.60
2019-03-25T09:11:24.562Z,10.00
2019-03-25T09:13:54.747Z,10.00
2019-03-25T09:16:27.515Z,10.20
2019-03-25T09:18:59.457Z,10.10
2019-03-25T09:21:28.758Z,9.60
2019-03-25T09:23:58.346Z,9.60
2019-03-25T09:26:27.338Z,9.90
2019-03-25T09:29:07.744Z,9.70
2019-03-25T09:31:52.915Z,10.00
2019-03-25T09:35:19.093Z,10.30
2019-03-25T09:37:52.709Z,10.60
2019-03-25T09:40:22.279Z,10.20
2019-03-25T09:42:51.252Z,10.40
2019-03-25T09:45:21.048Z,10.50
2019-03-25T09:47:50.529Z,10.40
2019-03-25T09:50:19.765Z,10.30
2019-03-25T09:52:48.777Z,10.50
2019-03-25T09:55:17.919Z,10.60
2019-03-25T09:57:47.872Z,10.40
2019-03-25T10:00:20.718Z,10.80
2019-03-25T10:02:49.674Z,10.40
2019-03-25T10:05:20.053Z,10.40
2019-03-25T10:07:48.878Z,10.00
2019-03-25T10:10:17.680Z,10.60
2019-03-25T10:12:47.006Z,10.30
2019-03-25T10:15:16.138Z,10.80
2019-03-25T10:17:44.896Z,10.90
2019-03-25T10:20:13.906Z,10.90
2019-03-25T10:22:43.449Z,10.60
2019-03-25T10:25:13.814Z,10.70
2019-03-25T10:27:42.637Z,10.60
2019-03-25T10:30:13.163Z,10.70
2019-03-25T10:32:41.988Z,10.80
2019-03-25T10:35:11.614Z,11.30
2019-03-25T10:37:40.492Z,9.50
2019-03-25T10:40:10.929Z,7.30
2019-03-25T10:42:40.137Z,7.00
2019-03-25T10:45:09.469Z,7.40
2019-03-25T10:47:38.361Z,7.70
2019-03-25T10:50:07.761Z,7.80
2019-03-25T10:52:36.505Z,7.60
2019-03-25T10:55:07.768Z,8.70
2019-03-25T10:57:36.659Z,9.30
2019-03-25T11:00:10.762Z,9.70
2019-03-25T11:02:39.615Z,9.90
2019-03-25T11:05:08.903Z,10.20
2019-03-25T11:07:37.993Z,9.40
2019-03-25T11:10:08.245Z,10.10
2019-03-25T11:12:38.273Z,10.30
2019-03-25T11:15:09.344Z,9.70
2019-03-25T11:17:38.570Z,10.20
2019-03-25T11:20:08.104Z,9.60
2019-03-25T11:22:37.278Z,9.70
2019-03-25T11:25:07.145Z,9.20
2019-03-25T11:27:36.202Z,9.20
2019-03-25T11:30:07.238Z,9.40
2019-03-25T11:32:36.289Z,8.80
2019-03-25T11:35:05.756Z,9.20
2019-03-25T11:37:34.654Z,8.70
2019-03-25T11:40:03.859Z,8.80
2019-03-25T11:42:33.020Z,8.80
2019-03-25T11:45:02.654Z,8.80
2019-03-25T11:47:31.867Z,9.50
2019-03-25T11:50:00.825Z,8.70
2019-03-25T11:52:29.697Z,9.50
2019-03-25T11:54:58.583Z,9.40
2019-03-25T11:57:27.584Z,9.90
2019-03-25T11:59:56.394Z,10.10
2019-03-25T12:02:25.509Z,10.10
2019-03-25T12:04:54.594Z,9.50
2019-03-25T12:07:23.645Z,9.30
2019-03-25T12:09:52.709Z,10.00
2019-03-25T12:12:22.717Z,9.90
2019-03-25T12:14:52.097Z,9.30
2019-03-25T12:17:21.598Z,10.30
2019-03-25T12:19:50.925Z,10.60
2019-03-25T12:22:20.319Z,10.20
2019-03-25T12:24:50.189Z,10.20
2019-03-25T12:27:20.970Z,9.90
2019-03-25T12:29:50.061Z,10.50
2019-03-25T12:32:21.663Z,10.30
2019-03-25T12:34:50.677Z,10.40
2019-03-25T12:37:19.863Z,10.50
2019-03-25T12:39:48.819Z,11.00
2019-03-25T12:42:17.847Z,10.20
2019-03-25T12:44:47.553Z,10.80
2019-03-25T12:47:16.497Z,10.60
2019-03-25T12:49:45.308Z,11.00
2019-03-25T12:52:14.266Z,10.60
2019-03-25T12:54:43.104Z,11.50
2019-03-25T12:57:12.098Z,11.40
2019-03-25T12:59:41.742Z,12.30
2019-03-25T13:02:10.697Z,11.90
2019-03-25T13:04:39.581Z,12.40
2019-03-25T13:07:08.666Z,11.30
2019-03-25T13:09:38.213Z,11.50
2019-03-25T13:12:07.035Z,10.90
2019-03-25T13:14:37.109Z,9.80
2019-03-25T13:17:05.911Z,9.70
2019-03-25T13:19:34.781Z,9.50
2019-03-25T13:22:04.663Z,9.20
2019-03-25T13:24:33.390Z,9.50
2019-03-25T13:27:02.228Z,9.50
2019-03-25T13:29:31.142Z,9.50
2019-03-25T13:31:59.939Z,9.80
2019-03-25T13:34:28.804Z,9.70
2019-03-25T13:36:58.436Z,9.90
2019-03-25T13:39:27.417Z,9.50
2019-03-25T13:41:56.933Z,10.20
2019-03-25T13:44:26.039Z,11.00
2019-03-25T13:46:54.854Z,10.60
2019-03-25T13:49:23.829Z,11.20
2019-03-25T13:51:52.736Z,11.80
2019-03-25T13:54:21.798Z,11.10
2019-03-25T13:56:50.686Z,10.20
2019-03-25T13:59:20.111Z,9.30
2019-03-25T14:01:48.949Z,10.20
2019-03-25T14:04:17.794Z,10.30
2019-03-25T14:06:47.126Z,9.30
2019-03-25T14:09:16.141Z,10.00
2019-03-25T14:11:45.194Z,9.20
2019-03-25T14:14:14.055Z,10.10
2019-03-25T14:16:43.065Z,10.30
2019-03-25T14:19:11.866Z,9.60
2019-03-25T14:21:40.737Z,10.00
2019-03-25T14:24:09.589Z,8.80
2019-03-25T14:26:38.554Z,9.00
2019-03-25T14:29:07.794Z,10.30
2019-03-25T14:31:36.633Z,10.50
2019-03-25T14:34:05.550Z,12.90
2019-03-25T14:36:34.650Z,13.80
2019-03-25T14:39:05.964Z,13.70
2019-03-25T14:41:35.305Z,14.70
2019-03-25T14:44:04.329Z,15.10
2019-03-25T14:46:33.488Z,14.50
2019-03-25T14:49:02.802Z,14.10
2019-03-25T14:51:31.685Z,16.50
2019-03-25T14:54:01.048Z,15.70
2019-03-25T14:56:29.978Z,12.30
2019-03-25T14:58:59.053Z,14.80
2019-03-25T15:01:28.151Z,15.90
2019-03-25T15:04:08.679Z,15.40
2019-03-25T15:06:37.882Z,15.20
2019-03-25T15:09:07.519Z,13.30
2019-03-25T15:11:36.487Z,12.50
2019-03-25T15:14:05.401Z,12.30
2019-03-25T15:16:34.350Z,10.40
2019-03-25T15:19:03.658Z,11.10
2019-03-25T15:21:32.653Z,10.70
2019-03-25T15:24:01.850Z,10.80
2019-03-25T15:26:30.762Z,10.20
2019-03-25T15:28:59.703Z,10.00
2019-03-25T15:31:28.550Z,9.90
2019-03-25T15:33:57.423Z,10.00
2019-03-25T15:36:26.266Z,10.30
2019-03-25T15:38:55.368Z,9.30
2019-03-25T15:41:24.627Z,8.90
2019-03-25T15:43:53.458Z,9.60
2019-03-25T15:46:22.737Z,9.40
2019-03-25T15:48:51.913Z,10.00
2019-03-25T15:51:20.825Z,9.50
2019-03-25T15:53:49.693Z,10.10
2019-03-25T15:56:18.829Z,9.90
2019-03-25T15:58:47.694Z,9.80
2019-03-25T16:01:16.538Z,10.90
2019-03-25T16:03:45.406Z,10.80
2019-03-25T16:06:14.288Z,10.50
2019-03-25T16:08:43.307Z,9.20
2019-03-25T16:11:12.223Z,10.50
2019-03-25T16:13:41.168Z,10.30
2019-03-25T16:16:10.105Z,10.10
2019-03-25T16:18:40.480Z,9.20
2019-03-25T16:21:10.103Z,9.60
2019-03-25T16:23:39.531Z,9.50
2019-03-25T16:26:08.619Z,9.20
2019-03-25T16:28:37.467Z,9.80
2019-03-25T16:31:19.011Z,10.10
2019-03-25T16:33:47.969Z,10.40
2019-03-25T16:36:16.992Z,9.20
2019-03-25T16:38:45.888Z,9.40
2019-03-25T16:41:14.888Z,9.50
2019-03-25T16:43:43.847Z,9.90
2019-03-25T16:46:12.801Z,9.50
2019-03-25T16:48:43.834Z,10.10
2019-03-25T16:51:13.315Z,10.20
2019-03-25T16:53:42.498Z,9.80
2019-03-25T16:56:11.644Z,9.80
2019-03-25T16:58:40.498Z,9.30
2019-03-25T17:01:10.503Z,9.70
2019-03-25T17:03:39.460Z,9.40
2019-03-25T17:06:08.446Z,9.30
2019-03-25T17:08:37.459Z,9.20
2019-03-25T17:11:06.313Z,8.60
2019-03-25T17:13:35.211Z,9.20
2019-03-25T17:16:04.401Z,9.30
2019-03-25T17:18:33.435Z,9.00
2019-03-25T17:21:11.276Z,9.00
2019-03-25T17:23:40.149Z,8.50
2019-03-25T17:26:09.140Z,8.10
2019-03-25T17:28:37.980Z,8.40
2019-03-25T17:31:07.040Z,8.00
2019-03-25T17:33:35.864Z,8.40
2019-03-25T17:36:05.083Z,7.90
2019-03-25T17:38:33.944Z,7.60
2019-03-25T17:41:05.158Z,7.70
2019-03-25T17:43:34.460Z,7.80
2019-03-25T17:46:03.645Z,7.50
2019-03-25T17:48:32.738Z,7.20
2019-03-25T17:51:01.889Z,8.10
2019-03-25T17:53:30.802Z,8.20
2019-03-25T17:56:02.340Z,8.10
2019-03-25T17:58:31.353Z,8.50
2019-03-25T18:01:07.790Z,8.30
2019-03-25T18:03:36.691Z,8.20
2019-03-25T18:06:05.674Z,8.10
2019-03-25T18:08:34.761Z,7.80
2019-03-25T18:11:03.896Z,8.20
2019-03-25T18:13:32.968Z,8.10
2019-03-25T18:16:02.215Z,7.70
2019-03-25T18:18:31.777Z,7.60
2019-03-25T18:21:00.691Z,8.30
2019-03-25T18:23:29.683Z,8.40
2019-03-25T18:25:58.622Z,8.20
2019-03-25T18:28:27.645Z,7.50
2019-03-25T18:30:56.690Z,7.30
2019-03-25T18:33:25.803Z,7.70
2019-03-25T18:35:54.671Z,7.40
2019-03-25T18:38:23.755Z,7.30
2019-03-25T18:40:52.645Z,7.20
2019-03-25T18:43:21.705Z,8.00
2019-03-25T18:45:50.681Z,7.80
2019-03-25T18:48:19.724Z,8.20
2019-03-25T18:50:48.655Z,8.20
2019-03-25T18:53:17.944Z,7.10
2019-03-25T18:55:46.727Z,7.70
2019-03-25T18:58:15.696Z,8.20
2019-03-25T19:00:44.775Z,7.80
2019-03-25T19:03:13.822Z,7.30
2019-03-25T19:05:42.762Z,8.20
2019-03-25T19:08:12.547Z,8.10
2019-03-25T19:10:41.612Z,7.40
2019-03-25T19:13:11.013Z,7.70
2019-03-25T19:15:40.060Z,7.80
2019-03-25T19:18:09.314Z,7.40
2019-03-25T19:20:38.561Z,7.70
2019-03-25T19:23:07.634Z,7.60
2019-03-25T19:25:36.709Z,8.10
2019-03-25T19:28:06.774Z,7.40
2019-03-25T19:30:35.717Z,7.20
2019-03-25T19:33:04.766Z,7.70
2019-03-25T19:35:33.650Z,7.10
2019-03-25T19:38:03.758Z,7.50
2019-03-25T19:40:33.032Z,7.80
2019-03-25T19:43:01.983Z,7.20
2019-03-25T19:45:31.228Z,7.80
2019-03-25T19:48:00.268Z,8.00
2019-03-25T19:50:29.399Z,8.00
2019-03-25T19:52:58.389Z,8.20
2019-03-25T19:55:27.698Z,8.00
2019-03-25T19:57:56.913Z,8.30
2019-03-25T20:00:39.005Z,7.80
2019-03-25T20:03:07.871Z,8.30
2019-03-25T20:05:36.987Z,7.20
2019-03-25T20:08:06.257Z,7.80
2019-03-25T20:10:36.297Z,7.40
2019-03-25T20:13:05.588Z,8.30
2019-03-25T20:15:45.652Z,8.40
2019-03-25T20:18:05.553Z,7.40
2019-03-25T20:20:35.143Z,7.80
2019-03-25T20:23:04.556Z,8.10
2019-03-25T20:25:34.729Z,8.50
2019-03-25T20:28:05.246Z,8.40
2019-03-25T20:30:34.350Z,8.60
2019-03-25T20:33:03.581Z,8.10
2019-03-25T20:35:32.529Z,8.40
2019-03-25T20:38:01.579Z,7.50
2019-03-25T20:40:30.615Z,7.80
2019-03-25T20:42:59.683Z,8.30
2019-03-25T20:45:28.742Z,8.20
2019-03-25T20:47:57.923Z,7.50
2019-03-25T20:50:26.857Z,8.00
2019-03-25T20:52:55.824Z,7.20
2019-03-25T20:55:24.903Z,7.40
2019-03-25T20:57:53.942Z,7.90
2019-03-25T21:00:46.838Z,7.60
2019-03-25T21:03:16.121Z,7.70
2019-03-25T21:05:45.437Z,7.40
2019-03-25T21:08:14.543Z,7.50
2019-03-25T21:10:43.765Z,7.70
2019-03-25T21:13:12.964Z,7.90
2019-03-25T21:15:42.033Z,7.50
2019-03-25T21:18:12.149Z,7.60
2019-03-25T21:20:41.175Z,7.60
2019-03-25T21:23:13.119Z,7.50
2019-03-25T21:25:42.025Z,7.90
2019-03-25T21:28:11.308Z,7.60
2019-03-25T21:30:47.959Z,7.30
2019-03-25T21:33:13.149Z,7.60
2019-03-25T21:35:42.255Z,7.40
2019-03-25T21:38:11.535Z,7.80
2019-03-25T21:40:40.453Z,7.90
2019-03-25T21:43:09.592Z,7.80
2019-03-25T21:45:38.778Z,8.20
2019-03-25T21:48:08.682Z,7.70
2019-03-25T21:50:38.051Z,7.70
2019-03-25T21:53:07.462Z,8.00
2019-03-25T21:55:37.158Z,7.70
2019-03-25T21:58:08.804Z,8.40
2019-03-25T22:00:57.937Z,8.70
2019-03-25T22:03:27.356Z,8.50
2019-03-25T22:05:56.486Z,8.30
2019-03-25T22:08:26.336Z,8.60
2019-03-25T22:10:55.347Z,7.60
2019-03-25T22:13:24.524Z,7.90
2019-03-25T22:15:53.512Z,8.30
2019-03-25T22:18:22.478Z,8.30
2019-03-25T22:20:51.464Z,8.00
2019-03-25T22:23:20.329Z,7.80
2019-03-25T22:25:49.217Z,8.50
2019-03-25T22:28:19.070Z,7.90
2019-03-25T22:30:48.132Z,8.40
2019-03-25T22:33:25.796Z,8.20
2019-03-25T22:35:47.751Z,8.70
2019-03-25T22:38:16.526Z,8.40
2019-03-25T22:40:45.429Z,9.00
2019-03-25T22:43:14.291Z,8.20
2019-03-25T22:45:43.160Z,8.30
2019-03-25T22:48:12.052Z,8.00
2019-03-25T22:50:40.832Z,8.10
2019-03-25T22:53:09.615Z,8.60
2019-03-25T22:55:38.490Z,8.30
2019-03-25T22:58:07.262Z,8.20
2019-03-25T23:00:45.868Z,7.60
2019-03-25T23:03:16.365Z,7.70
2019-03-25T23:05:45.445Z,8.50
2019-03-25T23:08:15.374Z,8.40
2019-03-25T23:11:01.918Z,8.00
2019-03-25T23:13:31.069Z,8.50
2019-03-25T23:15:59.934Z,8.20
2019-03-25T23:18:28.768Z,8.20
2019-03-25T23:20:57.602Z,8.40
2019-03-25T23:23:26.565Z,8.40
2019-03-25T23:25:55.380Z,8.50
2019-03-25T23:28:24.326Z,7.80
2019-03-25T23:30:53.597Z,7.80
2019-03-25T23:33:22.663Z,7.50
2019-03-25T23:35:51.651Z,7.90
2019-03-25T23:38:20.701Z,7.50
2019-03-25T23:40:49.685Z,7.40
2019-03-25T23:43:18.578Z,7.90
2019-03-25T23:45:47.432Z,8.00
2019-03-25T23:48:17.504Z,7.50
2019-03-25T23:50:46.441Z,7.50
2019-03-25T23:53:16.390Z,8.10
2019-03-25T23:55:45.293Z,7.50
2019-03-25T23:58:14.130Z,7.90
